Terminal Aerodrome Forecast
Issued by NWS

Home | Current Version | Previous Version | Text Only | Print | Product List | Glossary On
Versions: 1 2 3 4 5 6 7 8 9 10 11 12 13 14 15 16 17 18 19 20 21 22
000
FTUS43 KIND 021121
TAFHUF
TAF
KHUF 021121Z 0212/0312 22004KT 4SM BR SKC
      TEMPO 0212/0213 1 1/2SM BR
     FM021400 25007KT P6SM SCT030 SCT250
     FM030100 23004KT P6SM SCT250
     FM030800 21003KT 5SM BR FEW060 BKN250=

USA.gov is the U.S. government's official web portal to all federal, state and local government web resources and services.